Houghton Lake, MI

11:54 AM EST on January 29, 2015 (GMT -0500)
W. Shore of Houghton Lake | Change Station
CLOSE
Current Station
Personal Weather Station
Location: Houghton Lake, MI
Elevation: 1138 ft
Nearby Weather Stations

Elev 1138 ft 44.34 °N, 84.79 °W | Updated 10 minutes ago

Overcast
Overcast
25.5 °F
Feels Like 19 °F
N
5.3
Wind Variable Wind from West

Today
High -- | Low -- °F
--% Chance of Precip.
Yesterday
High -- | Low -- °F
Precip. -- in
8:00 AM 5:44 PM
Waxing Gibbous, 75% visible
Pressure 29.75 in
Visibility 3.0 miles
Clouds Few 1300 ft
Mostly Cloudy 3200 ft
Overcast 5000 ft
Windchill 19 °F
Dew Point 24 °F
Humidity 93%
Rainfall 0.00 in
Snow Depth Not available.
UV 1 out of 12
Pollen .10 out of 12
Air Quality Not available.
Flu Activity Not available.
SPECI KHTL 291643Z AUTO 28004KT 3SM -SN BR FEW013 BKN032 OVC050 M04/M06 A2975 RMK AO2 SNB10 P0001 T10441061

More Conditions Fewer Conditions

Pressure 29.75 in
Visibility 3.0 miles
Clouds Few 1300 ft
Mostly Cloudy 3200 ft
Overcast 5000 ft
Windchill 19 °F
Dew Point 24 °F
Humidity 93%
Rainfall 0.00 in
Snow Depth Not available.
UV 1 out of 12
Pollen .10 out of 12
Air Quality Not available.
Flu Activity Not available.
SPECI KHTL 291643Z AUTO 28004KT 3SM -SN BR FEW013 BKN032 OVC050 M04/M06 A2975 RMK AO2 SNB10 P0001 T10441061

More Conditions Fewer Conditions

Nowcast | as of 11:00 am EST on January 29, 2015

At 12 PM...chance of snow. Temperature 27. Northwest winds 7 mph. At 2 PM...chance of snow. Temperature 30. Northwest winds 13 mph. At 4 PM...cloudy. Chance of snow. Temperature 30. Northwest winds 17 mph with gusts to 30 mph. At 6 PM...scattered snow showers. Temperature 26. Northwest winds 19 mph.

×

10-Day Weather Forecast

Almanac

Astronomy

Jan. 29, 2015 Rise Set
Actual Time
Civil Twilight
Nautical Twilight
Astronomical Twilight
Moon
Length of Visible Light
Length of Day
Tomorrow will be .
, % of the Moon is Illuminated

Today's Extremes

State Highs State Lows

Community

WunderPhotos

Upload Photos

1,791,476 photos uploaded!

WunderBlogs® & News

Nearby

Air Quality

  Air Quality AQ Index Pollutant
Not available.

Snow Depth

Station Depth Elevation

Earthquake Activity

City Distance Mag. Time & Date
Minimum magnitude displayed is 2.5.

Coastal Water Temperatures

Place Temperature

Nearby Weather Stations